To NAV CANADA Home Page Login to a new session Search on AWWS site Disclaimer Vers la page française équivalente Tips FAQ What's new on the site To the Forecasts and Observations / NOTAM section To "File a Flight Plan" website Publications and other links Update of the User's profile FIC Telephone Numbers My Weather Data Folder Route Weather Data Regional Weather Data Local Weather Data To the Forecasts and Observations / NOTAM section
Request Generated 08/06/2020 at 18:50:46 UTC . Weather information available at that time is displayed.

METAR/TAF

TORONTO/LESTER B. PEARSON INTL/ON    

METAR CYYZ 061800Z 14009KT 15SM FEW058 23/12 A3014 RMK CU2 SLP209 DENSITY ALT 1400FT=
METAR CYYZ 061700Z 14007KT 090V200 15SM SCT057 23/12 A3015 RMK CU4 SLP211 DENSITY ALT 1500FT=
METAR CYYZ 061600Z 13007KT 090V200 15SM SCT050 23/11 A3016 RMK CU4 SLP214 DENSITY ALT 1400FT=

TAF CYYZ 061738Z 0618/0724 15008KT P6SM SCT050
FM070300 03008KT P6SM FEW050
BECMG 0715/0717 11010KT
BECMG 0720/0722 15008KT
RMK NXT FCST BY 062100Z=
Your time UTC time
Weather data provided by Environment Canada and NAV CANADA